Time;durP1;ratioP1;P1;durP2;ratioP2;P2;SDS_P1;SDS_P2;PMS_P1;PMS_P2;Temp;Humidity;BMP_temperature;BMP_pressure;BME280_temperature;BME280_humidity;BME280_pressure;Samples;Min_cycle;Max_cycle;Signal;HPM_P1;HPM_P2
2022/10/01 00:02:08;;;;;;;4.75;3.03;;;;;;;13.18;37.94;100263.84;5024025;28;20786;-71
2022/10/01 00:04:36;;;;;;;4.65;2.47;;;;;;;13.17;37.88;100257.47;5025406;28;20041;-71
2022/10/01 00:07:08;;;;;;;3.72;2.50;;;;;;;13.16;38.11;100257.63;5028901;28;20045;-71
2022/10/01 00:09:36;;;;;;;4.57;2.50;;;;;;;13.16;37.83;100263.13;5025253;28;20046;-71
2022/10/01 00:12:04;;;;;;;3.53;2.40;;;;;;;13.17;38.21;100264.84;5023129;28;20501;-71
2022/10/01 00:14:32;;;;;;;3.83;2.55;;;;;;;13.16;38.27;100258.50;5027485;28;20055;-70
2022/10/01 00:17:01;;;;;;;3.85;2.70;;;;;;;13.19;38.41;100263.69;5023743;28;20060;-70
2022/10/01 00:19:29;;;;;;;3.78;2.45;;;;;;;13.16;38.60;100254.88;5027373;28;20072;-70
2022/10/01 00:21:57;;;;;;;4.32;2.60;;;;;;;13.17;39.13;100251.97;5026241;28;20049;-70
2022/10/01 00:24:25;;;;;;;4.35;2.70;;;;;;;13.18;39.14;100250.09;5025152;28;20040;-70
2022/10/01 00:26:53;;;;;;;3.95;2.42;;;;;;;13.18;39.47;100244.59;5030458;28;20080;-70
2022/10/01 00:29:21;;;;;;;4.32;2.80;;;;;;;13.17;39.21;100241.00;5019463;28;20128;-70
2022/10/01 00:31:48;;;;;;;4.95;2.67;;;;;;;13.17;39.43;100243.75;5022866;28;20464;-70
2022/10/01 00:34:18;;;;;;;4.60;2.80;;;;;;;13.20;40.18;100242.56;5019795;28;20120;-70
2022/10/01 00:36:46;;;;;;;4.53;2.72;;;;;;;13.17;39.63;100223.66;5026491;28;20540;-70
2022/10/01 00:39:14;;;;;;;3.40;2.35;;;;;;;13.15;39.78;100218.31;5019770;28;20046;-71
2022/10/01 00:41:42;;;;;;;4.57;2.67;;;;;;;13.14;40.27;100219.34;5022675;28;20050;-70
2022/10/01 00:44:32;;;;;;;4.45;2.38;;;;;;;13.11;41.33;100219.69;5023336;28;20713;-71
2022/10/01 00:47:09;;;;;;;3.35;2.45;;;;;;;13.12;41.15;100204.03;5023966;28;20096;-70
2022/10/01 00:49:41;;;;;;;3.63;2.25;;;;;;;13.09;40.92;100187.91;5025024;28;20049;-70
2022/10/01 00:52:13;;;;;;;4.47;2.55;;;;;;;13.08;41.02;100186.19;5024284;28;20073;-70
2022/10/01 00:54:44;;;;;;;4.63;2.22;;;;;;;13.04;40.89;100182.88;5015031;28;20531;-71
2022/10/01 00:57:14;;;;;;;3.85;2.60;;;;;;;13.02;40.92;100165.75;5026217;28;20088;-71
2022/10/01 00:59:43;;;;;;;4.07;2.60;;;;;;;12.99;40.90;100163.31;5025461;28;20422;-70
2022/10/01 01:02:10;;;;;;;4.38;2.35;;;;;;;12.96;41.29;100155.41;5018188;28;20045;-71
2022/10/01 01:04:41;;;;;;;4.60;2.35;;;;;;;12.97;41.30;100153.50;5024090;28;20506;-70
2022/10/01 01:07:09;;;;;;;3.67;2.40;;;;;;;12.93;41.58;100150.25;5029246;28;20443;-70
2022/10/01 01:09:42;;;;;;;3.40;2.40;;;;;;;12.91;41.45;100146.81;5024688;28;20045;-70
2022/10/01 01:12:21;;;;;;;4.57;2.50;;;;;;;12.90;42.39;100139.59;5030086;28;20083;-70
2022/10/01 01:15:01;;;;;;;3.67;2.50;;;;;;;12.88;42.49;100150.75;5027919;28;20391;-70
2022/10/01 01:17:37;;;;;;;4.75;2.85;;;;;;;12.85;42.37;100148.34;5031137;28;20095;-71
2022/10/01 01:20:27;;;;;;;4.40;2.50;;;;;;;12.86;43.45;100140.97;5022524;28;20041;-70
2022/10/01 01:23:09;;;;;;;4.72;2.45;;;;;;;12.82;43.58;100128.59;5027538;28;20131;-70
2022/10/01 01:25:46;;;;;;;3.65;2.40;;;;;;;12.80;43.19;100127.88;5044643;28;20102;-70
2022/10/01 01:28:23;;;;;;;3.75;2.90;;;;;;;12.80;43.56;100125.13;5027337;28;20046;-70
2022/10/01 01:30:56;;;;;;;4.30;2.55;;;;;;;12.77;42.66;100109.03;5031036;28;20538;-71
2022/10/01 01:33:27;;;;;;;3.88;2.75;;;;;;;12.74;43.31;100101.09;5027308;28;20052;-70
2022/10/01 01:35:59;;;;;;;4.20;2.50;;;;;;;12.73;42.68;100094.75;5022003;28;20045;-71
2022/10/01 01:38:33;;;;;;;3.15;2.45;;;;;;;12.71;43.55;100082.22;5029903;28;20498;-70
2022/10/01 01:41:03;;;;;;;3.55;2.50;;;;;;;12.67;43.18;100075.34;5026316;28;20124;-71
2022/10/01 01:43:37;;;;;;;5.05;2.95;;;;;;;12.66;43.71;100058.00;5031257;28;20136;-70
2022/10/01 01:46:09;;;;;;;4.68;2.92;;;;;;;12.65;43.06;100038.97;5042649;28;20143;-70
2022/10/01 01:48:40;;;;;;;4.37;2.83;;;;;;;12.61;43.53;100045.78;5027789;28;20324;-70
2022/10/01 01:51:14;;;;;;;5.38;3.00;;;;;;;12.61;43.88;100007.38;5031709;28;20099;-70
2022/10/01 01:53:42;;;;;;;4.40;2.70;;;;;;;12.56;43.27;99996.88;5029901;28;20541;-70
2022/10/01 01:56:10;;;;;;;5.45;3.30;;;;;;;12.55;43.65;100008.88;5027414;28;20038;-70
2022/10/01 01:58:40;;;;;;;3.92;2.65;;;;;;;12.54;43.91;100015.41;5027718;28;20565;-70
2022/10/01 02:01:28;;;;;;;4.05;2.58;;;;;;;12.49;43.54;100021.38;5026686;28;20442;-70
2022/10/01 02:03:56;;;;;;;4.50;2.70;;;;;;;12.47;43.87;100019.84;5019192;28;20044;-70
2022/10/01 02:06:31;;;;;;;3.50;2.70;;;;;;;12.47;44.85;100017.94;5025651;28;20124;-70
2022/10/01 02:09:10;;;;;;;3.80;2.55;;;;;;;12.46;44.76;100020.84;5034802;28;20477;-70
2022/10/01 02:11:48;;;;;;;3.80;2.38;;;;;;;12.44;45.00;100012.81;5026337;28;20041;-70
2022/10/01 02:14:27;;;;;;;3.90;2.63;;;;;;;12.44;45.30;100023.78;5028287;28;20045;-70
2022/10/01 02:17:00;;;;;;;4.07;2.55;;;;;;;12.42;44.75;100027.72;5024419;28;20049;-70
2022/10/01 02:19:35;;;;;;;3.25;2.03;;;;;;;12.41;45.32;100036.97;5026099;28;20052;-70
2022/10/01 02:22:11;;;;;;;4.43;2.25;;;;;;;12.41;44.70;100050.69;5028694;28;20056;-70
2022/10/01 02:24:43;;;;;;;4.15;2.38;;;;;;;12.40;44.95;100040.72;5021808;28;20049;-70
2022/10/01 02:27:15;;;;;;;4.00;2.28;;;;;;;12.38;44.93;100043.63;5028959;28;20657;-70
2022/10/01 02:29:45;;;;;;;3.97;2.10;;;;;;;12.38;44.57;100045.53;5031717;28;20119;-70
2022/10/01 02:32:15;;;;;;;4.35;2.28;;;;;;;12.38;44.63;100048.25;5019173;28;20038;-70
2022/10/01 02:34:45;;;;;;;3.00;2.28;;;;;;;12.39;44.79;100047.25;5024936;28;20045;-70
2022/10/01 02:37:13;;;;;;;3.50;2.17;;;;;;;12.38;44.57;100048.25;5026716;28;20049;-70
2022/10/01 02:39:43;;;;;;;3.78;2.10;;;;;;;12.39;44.98;100048.09;5022939;28;20055;-70
2022/10/01 02:42:14;;;;;;;3.58;2.45;;;;;;;12.38;45.58;100035.41;5025590;28;20087;-70
2022/10/01 02:44:45;;;;;;;3.95;2.25;;;;;;;12.38;44.88;100034.53;5026943;28;20041;-70
2022/10/01 02:47:19;;;;;;;4.05;2.33;;;;;;;12.38;46.02;100013.47;5022155;28;20073;-70
2022/10/01 02:49:49;;;;;;;3.90;2.33;;;;;;;12.35;45.19;100019.28;5033471;28;20069;-71
2022/10/01 02:52:27;;;;;;;3.63;2.05;;;;;;;12.38;46.00;100007.09;5026596;28;20045;-71
2022/10/01 02:54:59;;;;;;;3.80;2.20;;;;;;;12.35;45.33;99982.75;5020963;28;20052;-71
2022/10/01 02:57:26;;;;;;;3.53;2.37;;;;;;;12.32;45.15;99986.69;5019355;28;20510;-70
2022/10/01 02:59:57;;;;;;;3.80;2.20;;;;;;;12.33;45.42;99984.81;5027699;28;20049;-70
2022/10/01 03:02:30;;;;;;;3.88;2.08;;;;;;;12.33;45.87;99993.03;5024568;28;20045;-71
2022/10/01 03:04:59;;;;;;;3.55;2.38;;;;;;;12.29;45.28;99998.03;5026471;28;20042;-71
2022/10/01 03:07:29;;;;;;;2.97;2.03;;;;;;;12.31;45.76;99990.47;5023795;28;20049;-71
2022/10/01 03:09:57;;;;;;;4.00;2.15;;;;;;;12.29;45.65;99956.88;5021884;28;20471;-72
2022/10/01 03:12:25;;;;;;;3.88;2.30;;;;;;;12.28;46.01;99952.41;5022534;28;20449;-71
2022/10/01 03:14:53;;;;;;;3.55;2.05;;;;;;;12.27;45.93;99947.94;5025518;28;20064;-70
2022/10/01 03:17:21;;;;;;;4.00;2.50;;;;;;;12.27;45.95;99939.72;5030360;28;20053;-70
2022/10/01 03:19:50;;;;;;;3.65;2.20;;;;;;;12.27;45.86;99949.81;5033294;28;20099;-70
2022/10/01 03:22:21;;;;;;;4.18;2.38;;;;;;;12.26;46.17;99943.47;5024799;28;20052;-69
2022/10/01 03:24:49;;;;;;;4.13;2.00;;;;;;;12.24;46.10;99944.66;5025064;28;20053;-70
2022/10/01 03:27:18;;;;;;;3.63;1.98;;;;;;;12.25;46.38;99940.88;5030733;28;20497;-70
2022/10/01 03:29:46;;;;;;;3.88;2.20;;;;;;;12.25;46.35;99943.63;5031007;28;20494;-71
2022/10/01 03:32:14;;;;;;;2.75;1.90;;;;;;;12.24;46.18;99940.03;5034376;28;20104;-71
2022/10/01 03:34:43;;;;;;;3.80;2.30;;;;;;;12.24;46.18;99933.69;5026694;28;20049;-71
2022/10/01 03:37:12;;;;;;;3.50;2.50;;;;;;;12.25;46.74;99900.59;5026559;28;20095;-71
2022/10/01 03:39:40;;;;;;;4.35;2.05;;;;;;;12.24;46.65;99911.75;5028003;28;20506;-72
2022/10/01 03:42:07;;;;;;;2.78;1.80;;;;;;;12.24;46.34;99925.44;5023675;28;20054;-69
2022/10/01 03:44:36;;;;;;;3.65;2.20;;;;;;;12.23;46.42;99901.78;5025993;28;20047;-71
2022/10/01 03:47:04;;;;;;;3.00;1.85;;;;;;;12.23;46.36;99896.31;5024054;28;20045;-71
2022/10/01 03:49:32;;;;;;;3.28;1.98;;;;;;;12.22;46.32;99886.34;5022626;28;20564;-71
2022/10/01 03:52:01;;;;;;;3.28;2.10;;;;;;;12.23;46.36;99888.06;5024296;28;20053;-70
2022/10/01 03:54:31;;;;;;;2.97;2.08;;;;;;;12.22;47.17;99884.47;5027880;28;20407;-70
2022/10/01 03:56:59;;;;;;;3.53;2.05;;;;;;;12.20;46.90;99900.25;5023260;28;20761;-71
2022/10/01 03:59:28;;;;;;;3.17;2.10;;;;;;;12.18;46.78;99879.50;5026857;28;20663;-70
2022/10/01 04:01:56;;;;;;;3.20;1.80;;;;;;;12.17;46.61;99872.28;5024385;28;20129;-70
2022/10/01 04:04:24;;;;;;;3.05;1.90;;;;;;;12.15;46.63;99880.69;5025040;28;20095;-70
2022/10/01 04:06:52;;;;;;;2.72;1.77;;;;;;;12.13;46.88;99863.53;5026686;28;20062;-70
2022/10/01 04:09:20;;;;;;;2.75;1.85;;;;;;;12.13;47.34;99884.66;5020710;28;20061;-70
2022/10/01 04:11:49;;;;;;;3.60;2.10;;;;;;;12.13;47.38;99870.94;5022537;28;20104;-70
2022/10/01 04:14:17;;;;;;;2.85;1.80;;;;;;;12.09;47.52;99871.25;5032719;28;20132;-70
2022/10/01 04:16:45;;;;;;;2.75;1.88;;;;;;;12.08;47.16;99869.53;5021802;28;20502;-69
2022/10/01 04:19:12;;;;;;;2.85;1.73;;;;;;;12.07;47.71;99856.84;5027255;28;20099;-70
2022/10/01 04:21:41;;;;;;;3.00;1.90;;;;;;;12.08;47.62;99887.88;5022203;28;20052;-69
2022/10/01 04:24:08;;;;;;;2.17;1.60;;;;;;;12.07;47.61;99913.56;5017695;28;20041;-75
2022/10/01 04:26:36;;;;;;;3.22;1.88;;;;;;;12.06;47.31;99896.25;5016727;28;20049;-69
2022/10/01 04:29:05;;;;;;;3.05;1.70;;;;;;;12.07;47.84;99881.53;5024383;28;20041;-69
2022/10/01 04:31:34;;;;;;;2.28;1.60;;;;;;;12.06;47.56;99866.09;5022531;28;20445;-69
2022/10/01 04:34:03;;;;;;;2.35;1.50;;;;;;;12.07;47.89;99878.78;5022113;28;20458;-69
2022/10/01 04:36:31;;;;;;;2.72;1.80;;;;;;;12.08;47.56;99893.34;5023222;28;20510;-69
2022/10/01 04:38:59;;;;;;;3.38;1.50;;;;;;;12.08;48.08;99898.84;5026075;28;20054;-69
2022/10/01 04:41:30;;;;;;;2.00;1.48;;;;;;;12.08;47.82;99899.72;5027625;28;20049;-69
2022/10/01 04:43:59;;;;;;;2.13;1.25;;;;;;;12.08;47.81;99907.06;5030054;28;20045;-69
2022/10/01 04:46:29;;;;;;;1.95;1.30;;;;;;;12.11;48.06;99896.63;5030448;28;20103;-69
2022/10/01 04:48:57;;;;;;;2.53;1.40;;;;;;;12.09;48.07;99881.38;5030842;28;20050;-69
2022/10/01 04:51:25;;;;;;;1.65;1.20;;;;;;;12.10;47.60;99894.91;5021228;28;20507;-69
2022/10/01 04:53:54;;;;;;;1.83;1.25;;;;;;;12.11;47.67;99880.19;5026820;28;20046;-69
2022/10/01 04:56:22;;;;;;;1.88;1.15;;;;;;;12.13;48.12;99876.41;5030371;28;20042;-69
2022/10/01 04:58:50;;;;;;;2.67;1.25;;;;;;;12.13;48.14;99858.91;5030484;28;20449;-69
2022/10/01 05:01:18;;;;;;;1.73;1.17;;;;;;;12.13;47.70;99847.06;5029691;28;20049;-70
2022/10/01 05:03:47;;;;;;;2.22;1.10;;;;;;;12.15;47.93;99845.03;5029284;28;20124;-69
2022/10/01 05:06:15;;;;;;;2.65;1.23;;;;;;;12.13;48.27;99858.91;5024165;28;20456;-69
2022/10/01 05:08:43;;;;;;;2.30;1.25;;;;;;;12.15;48.36;99852.41;5028902;28;20061;-70
2022/10/01 05:11:11;;;;;;;2.20;1.20;;;;;;;12.15;48.05;99861.50;5028862;28;20484;-70
2022/10/01 05:13:38;;;;;;;2.22;1.13;;;;;;;12.17;48.37;99861.31;5030359;28;20064;-70
2022/10/01 05:16:06;;;;;;;3.17;1.10;;;;;;;12.16;48.42;99865.94;5028640;28;20045;-70
2022/10/01 05:18:34;;;;;;;2.00;0.90;;;;;;;12.17;48.08;99875.91;5042108;28;20531;-71
2022/10/01 05:21:06;;;;;;;1.08;0.80;;;;;;;12.21;48.73;99873.69;5027154;28;20088;-70
2022/10/01 05:23:34;;;;;;;1.23;0.70;;;;;;;12.17;48.15;99864.94;5030305;28;20048;-70
2022/10/01 05:26:04;;;;;;;1.55;0.80;;;;;;;12.19;48.30;99860.13;5029038;28;20585;-70
2022/10/01 05:28:32;;;;;;;1.02;0.65;;;;;;;12.21;48.38;99862.72;5030544;28;20084;-70
2022/10/01 05:31:00;;;;;;;0.70;0.70;;;;;;;12.23;48.73;99866.13;5016224;28;20068;-70
2022/10/01 05:33:30;;;;;;;1.05;0.43;;;;;;;12.24;48.73;99870.59;5030340;28;20114;-70
2022/10/01 05:36:00;;;;;;;1.05;0.60;;;;;;;12.26;48.80;99863.06;5027469;28;20041;-69
2022/10/01 05:38:35;;;;;;;1.42;0.70;;;;;;;12.25;49.02;99867.69;5030020;28;20257;-69
2022/10/01 05:41:03;;;;;;;1.42;0.70;;;;;;;12.25;48.74;99870.44;5027885;28;20042;-70
2022/10/01 05:43:31;;;;;;;0.77;0.43;;;;;;;12.25;48.74;99872.31;5028868;28;20041;-70
2022/10/01 05:46:00;;;;;;;1.35;0.40;;;;;;;12.28;48.76;99869.25;5029212;28;20073;-70
2022/10/01 05:48:35;;;;;;;0.95;0.30;;;;;;;12.28;48.54;99877.47;5029865;28;20045;-70
2022/10/01 05:51:06;;;;;;;0.38;0.35;;;;;;;12.27;49.12;99879.34;5027775;28;20055;-70
2022/10/01 05:53:37;;;;;;;0.40;0.30;;;;;;;12.30;48.97;99875.38;5029214;28;20043;-70
2022/10/01 05:56:05;;;;;;;0.63;0.38;;;;;;;12.29;48.53;99880.03;5028205;28;20056;-69
2022/10/01 05:58:33;;;;;;;0.75;0.40;;;;;;;12.30;48.77;99880.88;5029400;28;20384;-69
2022/10/01 06:01:02;;;;;;;0.20;0.20;;;;;;;12.31;49.00;99879.84;5028962;28;20044;-70
2022/10/01 06:03:30;;;;;;;0.45;0.30;;;;;;;12.31;49.05;99886.19;5028566;28;20050;-69
2022/10/01 06:05:59;;;;;;;0.85;0.30;;;;;;;12.32;49.05;99889.81;5024380;28;20045;-69
2022/10/01 06:08:27;;;;;;;1.08;0.40;;;;;;;12.33;49.21;99883.28;5027475;28;20056;-70
2022/10/01 06:11:00;;;;;;;1.02;0.38;;;;;;;12.37;49.49;99890.19;5025676;28;20037;-70
2022/10/01 06:13:29;;;;;;;0.50;0.40;;;;;;;12.34;49.13;99891.34;5028743;28;20411;-69
2022/10/01 06:15:57;;;;;;;1.25;0.80;;;;;;;12.35;48.83;99898.56;5027044;28;20079;-70
2022/10/01 06:18:26;;;;;;;1.70;0.85;;;;;;;12.36;48.82;99905.78;5019223;28;20077;-69
2022/10/01 06:20:53;;;;;;;1.10;0.90;;;;;;;12.36;48.88;99903.03;5026230;28;20042;-69
2022/10/01 06:23:22;;;;;;;2.00;1.02;;;;;;;12.38;49.29;99909.19;5029152;28;20046;-69
2022/10/01 06:25:50;;;;;;;2.88;1.58;;;;;;;12.39;49.11;99913.66;5027781;28;20379;-69
2022/10/01 06:28:20;;;;;;;3.00;1.25;;;;;;;12.42;49.21;99921.56;5029644;28;20045;-69
2022/10/01 06:30:48;;;;;;;1.92;0.90;;;;;;;12.41;49.34;99925.31;5014477;28;20045;-69
2022/10/01 06:33:17;;;;;;;2.00;0.70;;;;;;;12.43;49.57;99926.03;5021719;28;20052;-69
2022/10/01 06:35:47;;;;;;;0.50;0.40;;;;;;;12.44;49.46;99926.88;5018850;28;20119;-69
2022/10/01 06:38:16;;;;;;;0.85;0.50;;;;;;;12.46;49.20;99920.16;5029531;28;20092;-69
2022/10/01 06:40:44;;;;;;;0.50;0.30;;;;;;;12.47;49.31;99912.81;5025293;28;20033;-69
2022/10/01 06:43:12;;;;;;;0.47;0.30;;;;;;;12.48;49.17;99911.78;5042798;28;20076;-69
2022/10/01 06:45:42;;;;;;;0.38;0.30;;;;;;;12.51;49.44;99908.69;5043294;28;20041;-69
2022/10/01 06:48:13;;;;;;;0.30;0.30;;;;;;;12.54;50.00;99915.75;5027049;28;20049;-69
2022/10/01 06:50:43;;;;;;;0.50;0.30;;;;;;;12.54;49.32;99913.88;5027290;28;20107;-69
2022/10/01 06:53:11;;;;;;;0.70;0.40;;;;;;;12.55;49.37;99918.28;5027643;28;20053;-69
2022/10/01 06:55:40;;;;;;;0.40;0.30;;;;;;;12.57;49.59;99912.66;5027995;28;20056;-70
2022/10/01 06:58:11;;;;;;;0.35;0.35;;;;;;;12.59;49.45;99916.94;5028774;28;20045;-69
2022/10/01 07:00:42;;;;;;;0.55;0.25;;;;;;;12.60;49.81;99918.66;5026934;28;20065;-69
2022/10/01 07:03:14;;;;;;;0.40;0.40;;;;;;;12.64;50.11;99921.94;5027698;28;20073;-69
2022/10/01 07:05:43;;;;;;;0.20;0.20;;;;;;;12.64;49.92;99910.97;5022999;28;20041;-69
2022/10/01 07:08:11;;;;;;;0.63;0.30;;;;;;;12.65;49.72;99926.41;5028131;28;20408;-69
2022/10/01 07:10:40;;;;;;;0.52;0.30;;;;;;;12.67;49.62;99921.63;5024735;28;20137;-69
2022/10/01 07:13:08;;;;;;;0.28;0.20;;;;;;;12.68;49.77;99921.44;5026905;28;20442;-69
2022/10/01 07:15:37;;;;;;;0.20;0.20;;;;;;;12.70;49.80;99924.88;5026913;28;20052;-69
2022/10/01 07:18:08;;;;;;;0.30;0.30;;;;;;;12.73;50.06;99941.00;5020514;28;20034;-69
2022/10/01 07:20:38;;;;;;;0.45;0.45;;;;;;;12.75;49.78;99935.34;5020634;28;20449;-70
2022/10/01 07:23:07;;;;;;;0.43;0.30;;;;;;;12.76;49.98;99937.06;5029155;28;20092;-69
2022/10/01 07:25:37;;;;;;;0.28;0.20;;;;;;;12.77;49.67;99938.78;5022615;28;20075;-69
2022/10/01 07:28:07;;;;;;;0.75;0.30;;;;;;;12.80;49.83;99942.03;5027030;28;20037;-70
2022/10/01 07:30:35;;;;;;;0.80;0.30;;;;;;;12.81;50.00;99935.50;5026825;28;20521;-69
2022/10/01 07:33:03;;;;;;;0.82;0.40;;;;;;;12.82;49.88;99931.75;5027311;28;20057;-70
2022/10/01 07:35:32;;;;;;;0.52;0.40;;;;;;;12.87;49.81;99940.31;5015679;28;20052;-70
2022/10/01 07:38:04;;;;;;;0.70;0.30;;;;;;;12.90;50.70;99949.25;5027693;28;20076;-70
2022/10/01 07:40:32;;;;;;;;;;;;;;;12.63;50.91;99953.16;5024252;28;20045;-70
2022/10/01 07:43:00;;;;;;;0.32;0.30;;;;;;;12.86;49.68;99959.72;5027486;28;20267;-70
2022/10/01 07:45:28;;;;;;;0.43;0.28;;;;;;;12.92;50.10;99960.91;5026811;28;20429;-70
2022/10/01 07:47:58;;;;;;;1.38;0.40;;;;;;;12.94;50.05;99973.47;5097397;22;20071;-84
2022/10/01 07:50:29;;;;;;;0.95;0.30;;;;;;;12.93;50.39;99970.88;5067027;28;20036;-83
2022/10/01 07:53:00;;;;;;;0.77;0.30;;;;;;;12.93;50.72;99971.75;5086227;28;20055;-83
2022/10/01 07:55:31;;;;;;;0.80;0.40;;;;;;;12.92;50.50;99974.66;5051189;28;20131;-83
2022/10/01 07:58:01;;;;;;;0.90;0.30;;;;;;;12.94;50.46;99972.59;5045797;28;20041;-82
2022/10/01 08:00:33;;;;;;;1.00;0.90;;;;;;;12.94;50.53;99972.59;5056745;28;20067;-84
2022/10/01 08:03:02;;;;;;;2.55;1.92;;;;;;;12.96;50.37;99976.88;5029071;28;20060;-84
2022/10/01 08:05:32;;;;;;;1.70;1.20;;;;;;;12.97;50.30;99972.25;5006964;28;20044;-84
2022/10/01 08:08:04;;;;;;;0.63;0.63;;;;;;;13.03;50.92;99983.44;5041728;28;20055;-82
2022/10/01 08:10:35;;;;;;;1.02;0.60;;;;;;;13.01;50.76;99976.38;5060561;28;20041;-83
2022/10/01 08:13:07;;;;;;;1.42;0.63;;;;;;;13.06;51.05;99980.31;5050793;28;20072;-84
2022/10/01 08:15:36;;;;;;;0.52;0.40;;;;;;;13.05;51.18;99981.34;5055406;28;20048;-83
2022/10/01 08:18:05;;;;;;;1.80;0.45;;;;;;;13.09;51.15;99979.97;5050265;28;20037;-83
2022/10/01 08:20:33;;;;;;;0.47;0.40;;;;;;;13.10;51.20;99980.84;5060865;28;20051;-84
2022/10/01 08:23:03;;;;;;;1.65;0.45;;;;;;;13.15;51.20;99992.16;5037497;28;20056;-83
2022/10/01 08:25:31;;;;;;;1.67;0.50;;;;;;;13.17;51.04;99996.47;5048576;28;20029;-83
2022/10/01 08:28:00;;;;;;;1.00;0.65;;;;;;;13.20;51.10;100001.59;5055795;28;20045;-82
2022/10/01 08:30:29;;;;;;;1.02;0.52;;;;;;;13.22;51.29;100001.44;5042788;28;20123;-83
2022/10/01 08:32:58;;;;;;;0.68;0.50;;;;;;;13.27;51.18;100009.16;5062076;28;20118;-82
2022/10/01 08:35:27;;;;;;;1.20;0.43;;;;;;;13.29;51.06;100001.59;5043596;28;20111;-82
2022/10/01 08:37:56;;;;;;;1.23;0.65;;;;;;;13.32;51.48;100010.34;5053352;28;20045;-83
2022/10/01 08:40:25;;;;;;;1.85;0.70;;;;;;;13.37;51.90;100016.19;5065254;28;20107;-84
2022/10/01 08:42:58;;;;;;;1.80;1.00;;;;;;;13.40;51.30;100018.59;5053821;28;20059;-83
2022/10/01 08:45:27;;;;;;;;;;;;;;;13.17;52.59;100026.69;5053975;28;20041;-84
2022/10/01 08:48:01;;;;;;;2.38;0.80;;;;;;;13.46;51.70;100031.63;5053132;28;19909;-83
2022/10/01 08:50:38;;;;;;;2.35;0.80;;;;;;;13.55;52.06;100032.50;5049289;28;20048;-84
2022/10/01 08:53:15;;;;;;;1.20;0.80;;;;;;;13.60;51.56;100024.63;5053091;28;20582;-85
2022/10/01 08:55:47;;;;;;;1.05;0.70;;;;;;;13.63;51.26;100038.00;5057790;28;20053;-81
2022/10/01 08:58:26;;;;;;;2.42;0.60;;;;;;;13.67;52.05;100033.91;5039900;28;20049;-82
2022/10/01 09:00:54;;;;;;;0.98;0.65;;;;;;;13.67;51.07;100035.78;5045087;28;20041;-81
2022/10/01 09:03:22;;;;;;;2.55;0.70;;;;;;;13.69;51.37;100037.34;5057597;28;20136;-84
2022/10/01 09:06:00;;;;;;;1.35;0.85;;;;;;;13.73;51.56;100037.81;5039060;28;20411;-82
2022/10/01 09:08:43;;;;;;;0.68;0.50;;;;;;;13.76;52.27;100034.75;5029294;28;20041;-83
2022/10/01 09:11:26;;;;;;;2.65;0.70;;;;;;;13.75;52.45;100036.63;5047928;28;20057;-82
2022/10/01 09:14:21;;;;;;;1.10;0.75;;;;;;;13.79;52.36;100042.63;5041901;28;20438;-83
2022/10/01 09:16:59;;;;;;;1.38;0.60;;;;;;;13.84;51.92;100042.97;5060891;28;20072;-84
2022/10/01 09:19:38;;;;;;;0.82;0.60;;;;;;;13.86;51.99;100047.25;5029309;28;20042;-82
2022/10/01 09:22:16;;;;;;;1.58;0.60;;;;;;;13.91;51.42;100046.72;5050772;28;20041;-82
2022/10/01 09:24:45;;;;;;;0.85;0.65;;;;;;;13.93;51.26;100058.44;5050841;28;20096;-84
2022/10/01 09:27:17;;;;;;;0.73;0.60;;;;;;;13.95;51.60;100059.09;5036497;28;20442;-83
2022/10/01 09:29:49;;;;;;;1.55;0.68;;;;;;;13.94;51.36;100065.66;5034902;28;20451;-83
2022/10/01 09:32:21;;;;;;;2.50;0.90;;;;;;;13.95;51.48;100054.44;5037503;28;20048;-85
2022/10/01 09:34:49;;;;;;;1.58;0.60;;;;;;;13.94;51.08;100060.97;5037701;28;20475;-82
2022/10/01 09:37:28;;;;;;;2.20;0.60;;;;;;;14.00;52.01;100062.19;5046928;28;20048;-84
2022/10/01 09:40:14;;;;;;;0.88;0.60;;;;;;;13.98;51.95;100065.09;5034505;28;20419;-84
2022/10/01 09:42:43;;;;;;;1.30;0.60;;;;;;;13.97;51.49;100068.88;5040199;28;20168;-83
2022/10/01 09:45:13;;;;;;;2.40;0.82;;;;;;;13.96;51.52;100074.56;5031291;28;20049;-84
2022/10/01 09:47:43;;;;;;;2.30;0.90;;;;;;;13.96;51.37;100080.94;5043228;28;20052;-83
2022/10/01 09:50:17;;;;;;;2.35;1.00;;;;;;;13.97;51.67;100082.66;5039231;28;20048;-84
2022/10/01 09:52:50;;;;;;;3.58;0.95;;;;;;;13.97;52.30;100084.53;5041540;28;20048;-83
2022/10/01 09:55:28;;;;;;;1.92;0.90;;;;;;;13.94;52.41;100074.72;5062544;28;20045;-83
2022/10/01 09:58:04;;;;;;;2.40;0.82;;;;;;;13.96;52.66;100071.81;5029594;28;20099;-82
2022/10/01 10:00:32;;;;;;;1.48;0.85;;;;;;;13.93;52.00;100059.28;5037811;28;20037;-83
2022/10/01 10:03:00;;;;;;;2.17;0.63;;;;;;;13.96;51.78;100071.81;5043241;28;20055;-83
2022/10/01 10:05:38;;;;;;;2.05;0.77;;;;;;;13.98;52.06;100069.75;5056818;28;20044;-83
2022/10/01 10:08:12;;;;;;;1.92;0.90;;;;;;;14.01;52.40;100080.41;5037162;28;20650;-82
2022/10/01 10:10:49;;;;;;;1.33;0.80;;;;;;;14.01;51.84;100080.41;5052378;28;20147;-82
2022/10/01 10:13:25;;;;;;;2.08;1.17;;;;;;;14.04;52.81;100082.78;5034474;28;20053;-83
2022/10/01 10:15:56;;;;;;;1.25;0.70;;;;;;;14.06;52.12;100088.13;5034797;28;20515;-82
2022/10/01 10:18:29;;;;;;;1.50;0.80;;;;;;;14.09;53.02;100093.28;5038013;28;20041;-82
2022/10/01 10:20:59;;;;;;;1.38;0.60;;;;;;;14.10;52.74;100095.88;5042067;28;20388;-82
2022/10/01 10:23:28;;;;;;;2.60;0.70;;;;;;;14.11;52.21;100097.56;5037324;28;20104;-82
2022/10/01 10:25:59;;;;;;;1.80;1.15;;;;;;;14.16;52.49;100099.81;5039509;28;20110;-83
2022/10/01 10:28:40;;;;;;;2.13;0.80;;;;;;;14.23;53.00;100109.06;5046326;28;20159;-82
2022/10/01 10:31:15;;;;;;;2.65;1.02;;;;;;;14.26;52.88;100103.22;5035039;28;20132;-82
2022/10/01 10:33:53;;;;;;;3.30;1.00;;;;;;;14.29;53.46;100103.72;5033590;28;20052;-83
2022/10/01 10:36:26;;;;;;;1.67;0.90;;;;;;;14.36;53.03;100114.88;5038043;28;20688;-84
2022/10/01 10:38:56;;;;;;;2.20;1.10;;;;;;;14.41;52.93;100123.47;5046600;28;20063;-84
2022/10/01 10:41:25;;;;;;;1.73;1.02;;;;;;;14.51;53.52;100117.78;5056026;28;20067;-84
2022/10/01 10:43:59;;;;;;;1.90;1.10;;;;;;;14.64;53.52;100126.34;5040822;28;20037;-84
2022/10/01 10:46:31;;;;;;;3.22;1.48;;;;;;;14.71;53.37;100124.56;5044142;28;20049;-83
2022/10/01 10:49:04;;;;;;;3.47;1.30;;;;;;;14.87;53.86;100131.91;5034625;28;20518;-84
2022/10/01 10:51:47;;;;;;;;;;;;;;;14.68;54.40;100131.28;5037107;28;20365;-84
2022/10/01 10:54:25;;;;;;;3.50;1.17;;;;;;;15.08;53.74;100140.41;5054186;28;19967;-83
2022/10/01 10:57:01;;;;;;;2.45;1.40;;;;;;;15.26;53.35;100137.38;5029741;28;20068;-83
2022/10/01 10:59:32;;;;;;;4.43;1.70;;;;;;;15.41;53.27;100141.09;5032303;28;20045;-83
2022/10/01 11:02:04;;;;;;;3.80;1.40;;;;;;;15.56;53.10;100141.16;5047098;28;20055;-83
2022/10/01 11:04:40;;;;;;;4.22;1.95;;;;;;;15.69;52.29;100144.13;5050744;28;20083;-84
2022/10/01 11:07:12;;;;;;;5.35;1.92;;;;;;;15.82;52.28;100148.00;5053372;28;20071;-82
2022/10/01 11:09:56;;;;;;;4.40;1.75;;;;;;;15.95;51.89;100139.09;5054389;28;20041;-83
2022/10/01 11:12:39;;;;;;;3.17;1.70;;;;;;;16.08;51.31;100150.34;5045339;28;20068;-83
2022/10/01 11:15:27;;;;;;;3.03;1.73;;;;;;;16.18;50.63;100147.34;5041433;28;20041;-82
2022/10/01 11:18:17;;;;;;;3.75;1.67;;;;;;;16.24;49.90;100160.41;5037148;28;20071;-81
2022/10/01 11:20:55;;;;;;;4.25;2.05;;;;;;;16.32;49.87;100149.28;5051567;28;20041;-83
2022/10/01 11:23:44;;;;;;;4.03;1.50;;;;;;;16.37;49.38;100151.47;5044710;28;20471;-83
2022/10/01 11:26:23;;;;;;;2.75;1.80;;;;;;;16.41;49.58;100152.81;5068015;28;20072;-83
2022/10/01 11:29:04;;;;;;;3.05;1.50;;;;;;;16.44;49.63;100150.50;5057362;28;20415;-83
2022/10/01 11:31:39;;;;;;;3.35;1.80;;;;;;;16.44;49.44;100144.13;5023611;28;20049;-82
2022/10/01 11:34:31;;;;;;;3.08;1.50;;;;;;;16.47;49.27;100155.66;5034268;28;20338;-83
2022/10/01 11:37:09;;;;;;;3.40;1.80;;;;;;;16.48;49.55;100156.53;5045976;28;20487;-82
2022/10/01 11:39:41;;;;;;;3.00;1.48;;;;;;;16.50;49.65;100155.28;5045445;28;20606;-82
2022/10/01 11:42:13;;;;;;;4.32;1.95;;;;;;;16.55;49.88;100158.34;5052577;28;20053;-83
2022/10/01 11:44:47;;;;;;;3.85;1.50;;;;;;;16.63;49.66;100154.63;5043683;28;20124;-83
2022/10/01 11:47:22;;;;;;;3.53;1.55;;;;;;;16.69;49.00;100156.59;5037296;28;20045;-84
2022/10/01 11:49:58;;;;;;;3.28;1.58;;;;;;;16.76;48.92;100149.25;5059457;28;20075;-83